Simms, Louisiana
Current Conditions -  °F | °C
As of 7:53 AM on Monday 26 Jan 2015 (Local Time) from KESF Reporting Station
Clear Clear  
Wind Chill: 42°   Ceiling: Unl
Heat Index: 42°   Visibility: 10mi
Dew Point: 33°   Wind: 3mph
Humidity: 70%   Direction: 300°WNW
Pressure: 30.18"   Gusts: NA
Location:  31.538°N, 92.3799°W
Report Text: KESF 261353Z AUTO 30003KT 10SM CLR 06/01 A3018 RMK AO2 SLP220 T00560006
Loading
Personal Weather Stations






























Interactive Weather Map New forecast layout! Learn more

10-Day Weather Forecast

Advertisements
Track Severe Weather on mobile